Time;durP1;ratioP1;P1;durP2;ratioP2;P2;SDS_P1;SDS_P2;PMS_P1;PMS_P2;Temp;Humidity;BMP_temperature;BMP_pressure;BME280_temperature;BME280_humidity;BME280_pressure;Samples;Min_cycle;Max_cycle;Signal;HPM_P1;HPM_P2
2022/06/23 00:01:27;;;;;;;;;18.00;16.67;;;;;21.38;100.00;100585.69;4973718;28;45536;-74
2022/06/23 00:03:55;;;;;;;;;13.67;13.00;;;;;21.43;100.00;100597.66;4972418;28;45344;-72
2022/06/23 00:06:33;;;;;;;;;20.67;16.33;;;;;21.44;100.00;100598.53;4968260;28;45369;-72
2022/06/23 00:08:58;;;;;;;;;16.67;15.67;;;;;21.46;100.00;100599.06;4970234;28;45528;-72
2022/06/23 00:11:27;;;;;;;;;18.33;16.33;;;;;21.45;100.00;100595.44;4972676;28;46314;-73
2022/06/23 00:14:05;;;;;;;;;16.00;16.00;;;;;21.40;100.00;100586.25;4973348;28;45705;-72
2022/06/23 00:16:31;;;;;;;;;13.00;13.00;;;;;21.33;100.00;100598.56;4973451;28;45542;-72
2022/06/23 00:18:56;;;;;;;;;19.00;18.00;;;;;21.25;100.00;100607.50;4972422;28;45779;-73
2022/06/23 00:21:27;;;;;;;;;20.00;17.33;;;;;21.22;100.00;100630.38;4972641;28;45650;-73
2022/06/23 00:24:06;;;;;;;;;18.33;15.67;;;;;21.16;100.00;100614.78;4975738;28;45676;-73
2022/06/23 00:26:36;;;;;;;;;17.67;17.67;;;;;21.11;100.00;100606.44;4973587;28;45962;-74
2022/06/23 00:29:03;;;;;;;;;26.33;21.67;;;;;21.03;100.00;100598.66;4971162;28;45844;-73
2022/06/23 00:31:37;;;;;;;;;24.00;20.67;;;;;20.92;100.00;100592.28;4972818;28;46577;-72
2022/06/23 00:34:15;;;;;;;;;28.00;24.33;;;;;20.82;100.00;100601.47;4973353;28;45865;-72
2022/06/23 00:36:48;;;;;;;;;24.00;23.00;;;;;20.74;100.00;100590.91;4970886;28;45706;-72
2022/06/23 00:39:50;;;;;;;;;26.33;24.67;;;;;20.69;100.00;100590.91;4972840;28;45751;-72
2022/06/23 00:42:27;;;;;;;;;24.67;23.67;;;;;20.69;100.00;100582.53;4976917;28;45365;-73
2022/06/23 00:45:01;;;;;;;;;30.33;27.00;;;;;20.66;100.00;100589.53;4975386;28;45366;-74
2022/06/23 00:47:38;;;;;;;;;27.33;25.33;;;;;20.62;100.00;100583.63;4967084;28;45755;-74
2022/06/23 00:50:24;;;;;;;;;31.00;29.00;;;;;20.57;100.00;100589.22;4979371;28;45884;-75
2022/06/23 00:53:01;;;;;;;;;26.33;25.00;;;;;20.54;100.00;100587.00;4982641;28;45664;-74
2022/06/23 00:55:40;;;;;;;;;27.00;23.67;;;;;20.50;100.00;100582.28;4990424;28;45331;-74
2022/06/23 00:58:35;;;;;;;;;25.00;24.00;;;;;20.45;100.00;100589.50;4977364;28;45688;-75
2022/06/23 01:01:39;;;;;;;;;24.67;22.00;;;;;20.40;100.00;100591.44;4969775;28;45429;-74
2022/06/23 01:04:27;;;;;;;;;27.00;23.00;;;;;20.31;100.00;100593.94;4978419;28;45738;-75
2022/06/23 01:07:27;;;;;;;;;26.67;23.67;;;;;20.27;100.00;100593.69;4976618;28;45358;-74
2022/06/23 01:10:05;;;;;;;;;29.33;26.33;;;;;20.24;100.00;100605.38;4976648;28;45745;-73
2022/06/23 01:12:54;;;;;;;;;30.33;26.33;;;;;20.18;100.00;100603.72;4965379;28;45691;-72
2022/06/23 01:15:25;;;;;;;;;32.67;26.33;;;;;20.13;100.00;100605.66;4976214;28;45590;-73
2022/06/23 01:18:04;;;;;;;;;23.33;22.67;;;;;20.07;100.00;100608.41;4978793;28;45744;-73
2022/06/23 01:21:05;;;;;;;;;31.00;30.33;;;;;20.03;100.00;100606.44;4977719;28;45428;-73
2022/06/23 01:23:50;;;;;;;;;26.33;25.33;;;;;19.97;100.00;100596.41;4960490;28;45439;-73
2022/06/23 01:26:26;;;;;;;;;30.00;27.33;;;;;19.91;100.00;100590.00;4976982;28;46640;-73
2022/06/23 01:29:02;;;;;;;;;30.33;30.00;;;;;19.86;100.00;100595.56;4966716;28;45651;-72
2022/06/23 01:31:40;;;;;;;;;24.67;23.33;;;;;19.83;100.00;100594.16;4963024;28;45670;-72
2022/06/23 01:34:17;;;;;;;;;30.67;26.00;;;;;19.84;100.00;100584.72;4964270;28;45478;-71
2022/06/23 01:36:57;;;;;;;;;35.00;29.33;;;;;19.81;100.00;100579.69;4985421;28;46448;-72
2022/06/23 01:39:29;;;;;;;;;27.00;27.00;;;;;19.83;100.00;100591.38;4994980;28;45746;-74
2022/06/23 01:42:00;;;;;;;;;30.67;24.33;;;;;19.73;100.00;100560.72;4972583;28;45648;-72
2022/06/23 01:44:56;;;;;;;;;28.33;27.67;;;;;19.90;100.00;100582.78;4973377;28;45823;-71
2022/06/23 01:47:33;;;;;;;;;28.67;28.67;;;;;19.97;100.00;100582.50;4970343;28;45438;-72
2022/06/23 01:50:24;;;;;;;;;27.33;23.00;;;;;20.04;100.00;100583.06;4971346;28;45462;-73
2022/06/23 01:53:22;;;;;;;;;24.00;22.67;;;;;20.04;100.00;100581.13;4965709;28;45460;-71
2022/06/23 01:56:03;;;;;;;;;22.33;19.00;;;;;20.08;100.00;100573.06;4967851;28;45722;-72
2022/06/23 01:58:47;;;;;;;;;25.00;22.67;;;;;20.10;100.00;100570.81;4986617;28;46983;-72
2022/06/23 02:01:23;;;;;;;;;25.00;23.67;;;;;20.13;100.00;100575.84;4983848;28;45311;-72
2022/06/23 02:03:59;;;;;;;;;24.00;23.00;;;;;20.11;100.00;100564.16;4974015;28;45398;-71
2022/06/23 02:06:37;;;;;;;;;23.67;19.67;;;;;20.12;100.00;100563.06;4965097;28;45507;-70
2022/06/23 02:09:14;;;;;;;;;23.33;22.00;;;;;20.09;100.00;100571.97;4973011;28;47369;-71
2022/06/23 02:11:47;;;;;;;;;27.33;23.33;;;;;20.10;100.00;100573.63;4974976;28;45727;-71
2022/06/23 02:14:39;;;;;;;;;21.00;19.33;;;;;20.11;100.00;100572.50;4985687;28;45571;-71
2022/06/23 02:17:25;;;;;;;;;26.00;23.00;;;;;20.13;100.00;100572.22;4982182;28;45450;-71
2022/06/23 02:19:56;;;;;;;;;21.00;21.00;;;;;20.17;100.00;100576.97;4976867;28;46153;-72
2022/06/23 02:22:34;;;;;;;;;25.33;24.67;;;;;20.19;100.00;100576.69;4976983;28;45391;-74
2022/06/23 02:25:21;;;;;;;;;25.33;21.67;;;;;20.22;100.00;100574.16;4968731;28;45454;-71
2022/06/23 02:27:59;;;;;;;;;27.00;24.67;;;;;20.22;100.00;100571.38;4978235;28;45872;-72
2022/06/23 02:30:27;;;;;;;;;24.00;23.00;;;;;20.20;100.00;100572.81;4978218;28;46180;-72
2022/06/23 02:33:11;;;;;;;;;22.00;20.67;;;;;20.18;100.00;100570.28;4987398;28;45909;-71
2022/06/23 02:35:58;;;;;;;;;23.67;22.67;;;;;20.18;100.00;100570.28;4978333;28;45486;-72
2022/06/23 02:38:26;;;;;;;;;26.33;25.33;;;;;20.19;100.00;100571.13;4972583;28;45961;-73
2022/06/23 02:41:03;;;;;;;;;23.67;23.67;;;;;20.18;100.00;100566.66;4974486;28;46197;-72
2022/06/23 02:43:28;;;;;;;;;29.33;25.00;;;;;20.19;100.00;100563.59;4977134;28;45445;-69
2022/06/23 02:45:56;;;;;;;;;30.00;27.00;;;;;20.22;100.00;100568.59;4978084;28;45304;-72
2022/06/23 02:48:49;;;;;;;;;25.67;24.67;;;;;20.25;100.00;100575.56;4981420;28;45762;-70
2022/06/23 02:51:25;;;;;;;;;31.33;27.00;;;;;20.27;100.00;100567.78;4967656;28;45769;-72
2022/06/23 02:54:31;;;;;;;;;28.67;26.33;;;;;20.27;100.00;100568.63;4980784;28;45652;-70
2022/06/23 02:56:57;;;;;;;;;34.33;29.33;;;;;20.24;100.00;100559.97;4963524;28;45601;-71
2022/06/23 02:59:53;;;;;;;;;30.33;26.33;;;;;20.18;100.00;100566.66;4979090;28;45764;-71
2022/06/23 03:02:48;;;;;;;;;37.33;32.00;;;;;20.13;100.00;100561.91;4956538;28;47346;-71
2022/06/23 03:05:31;;;;;;;;;36.33;26.67;;;;;20.09;100.00;100569.19;4978503;28;46532;-71
2022/06/23 03:08:01;;;;;;;;;33.00;32.00;;;;;20.06;100.00;100580.84;4971313;28;45758;-72
2022/06/23 03:10:36;;;;;;;;;35.67;32.67;;;;;19.97;100.00;100569.44;4975252;28;45750;-73
2022/06/23 03:13:10;;;;;;;;;30.67;28.67;;;;;20.00;100.00;100580.03;4982198;28;45622;-72
2022/06/23 03:16:14;;;;;;;;;35.33;29.67;;;;;20.06;100.00;100586.41;4987922;28;45486;-71
2022/06/23 03:18:55;;;;;;;;;32.67;29.00;;;;;20.09;100.00;100585.88;4970296;28;45456;-71
2022/06/23 03:21:26;;;;;;;;;34.00;29.33;;;;;20.10;100.00;100591.19;4932334;28;45753;-72
2022/06/23 03:23:57;;;;;;;;;29.00;26.00;;;;;20.16;100.00;100592.00;4955556;28;46133;-74
2022/06/23 03:26:35;;;;;;;;;28.00;27.00;;;;;20.25;100.00;100587.56;4961466;28;45685;-74
2022/06/23 03:29:19;;;;;;;;;30.33;28.00;;;;;20.34;100.00;100592.56;4960754;28;45759;-73
2022/06/23 03:31:55;;;;;;;;;30.67;24.00;;;;;20.42;100.00;100594.81;4952256;28;47286;-72
2022/06/23 03:35:23;;;;;;;;;31.00;27.00;;;;;20.48;100.00;100593.69;4948277;28;47590;-73
2022/06/23 03:37:56;;;;;;;;;13.33;12.67;;;;;20.53;100.00;100602.03;4890715;28;46863;-74
2022/06/23 03:43:31;;;;;;;;;9.00;7.67;;;;;20.66;100.00;100605.41;4958621;28;45373;-75
2022/06/23 03:46:05;;;;;;;;;9.00;7.33;;;;;20.69;100.00;100602.91;4958107;28;46056;-73
2022/06/23 03:48:51;;;;;;;;;6.00;4.67;;;;;20.73;100.00;100601.19;4960993;28;45643;-74
2022/06/23 03:51:31;;;;;;;;;5.67;5.67;;;;;20.76;100.00;100594.25;4954995;28;45439;-72
2022/06/23 03:53:56;;;;;;;;;5.67;4.00;;;;;20.87;100.00;100604.25;4958144;28;45561;-75
2022/06/23 03:56:25;;;;;;;;;6.67;5.67;;;;;20.91;100.00;100602.59;4958244;28;45887;-73
2022/06/23 03:59:08;;;;;;;;;5.33;3.00;;;;;20.95;100.00;100609.25;4960734;28;45851;-73
2022/06/23 04:01:52;;;;;;;;;3.00;3.00;;;;;21.01;100.00;100606.47;4957687;28;45526;-73
2022/06/23 04:04:25;;;;;;;;;4.00;3.00;;;;;21.10;100.00;100611.16;4956498;28;45511;-74
2022/06/23 04:06:52;;;;;;;;;6.67;3.00;;;;;21.14;100.00;100606.72;4954091;28;45764;-74
2022/06/23 04:09:24;;;;;;;;;2.00;2.00;;;;;21.22;100.00;100615.63;4953417;28;45809;-74
2022/06/23 04:12:04;;;;;;;;;5.00;3.67;;;;;21.22;100.00;100604.47;4952862;28;45729;-75
2022/06/23 04:14:55;;;;;;;;;4.67;3.33;;;;;21.19;100.00;100610.59;4953985;28;46068;-73
2022/06/23 04:17:32;;;;;;;;;3.67;2.67;;;;;21.14;100.00;100609.50;4934034;28;45658;-74
2022/06/23 04:20:19;;;;;;;;;4.67;4.00;;;;;21.07;100.00;100608.94;4958584;28;45899;-74
2022/06/23 04:22:59;;;;;;;;;4.00;4.00;;;;;21.07;100.00;100610.91;4975131;28;45823;-74
2022/06/23 04:25:37;;;;;;;;;4.67;4.00;;;;;21.06;100.00;100617.59;4973858;28;45908;-72
2022/06/23 04:28:03;;;;;;;;;6.67;5.00;;;;;21.05;100.00;100616.78;4972533;28;46675;-75
2022/06/23 04:30:34;;;;;;;;;4.00;4.00;;;;;21.11;100.00;100624.00;4974201;28;45678;-74
2022/06/23 04:33:03;;;;;;;;;6.00;5.00;;;;;21.15;100.00;100624.25;4973851;28;45653;-72
2022/06/23 04:35:33;;;;;;;;;6.00;4.33;;;;;21.13;100.00;100613.38;4972996;28;46346;-74
2022/06/23 04:38:11;;;;;;;;;4.33;4.33;;;;;21.19;100.00;100625.38;4972667;28;47001;-73
2022/06/23 04:40:42;;;;;;;;;8.33;6.00;;;;;21.25;100.00;100621.44;4963978;28;45835;-73
2022/06/23 04:43:17;;;;;;;;;5.67;4.00;;;;;21.28;100.00;100628.41;4959112;28;45571;-73
2022/06/23 04:45:51;;;;;;;;;7.33;3.67;;;;;21.29;100.00;100625.34;4968947;28;47292;-74
2022/06/23 04:48:33;;;;;;;;;4.67;4.00;;;;;21.28;100.00;100628.41;4960450;28;46284;-76
2022/06/23 04:51:07;;;;;;;;;3.33;3.33;;;;;21.26;100.00;100620.34;4972212;28;45582;-74
2022/06/23 04:53:52;;;;;;;;;2.33;2.00;;;;;21.22;100.00;100629.56;4957132;28;45759;-72
2022/06/23 04:56:25;;;;;;;;;4.00;2.67;;;;;21.18;100.00;100629.28;4965076;28;45663;-73
2022/06/23 04:58:56;;;;;;;;;2.67;2.67;;;;;21.18;100.00;100632.06;4953453;28;46632;-72
2022/06/23 05:01:27;;;;;;;;;2.33;2.33;;;;;21.15;100.00;100627.91;4962220;28;45842;-73
2022/06/23 05:03:58;;;;;;;;;2.00;2.00;;;;;21.23;100.00;100634.84;4962748;28;45396;-72
2022/06/23 05:06:41;;;;;;;;;2.00;2.00;;;;;21.26;100.00;100631.50;4961776;28;45479;-72
2022/06/23 05:09:18;;;;;;;;;2.67;2.67;;;;;21.29;100.00;100633.72;4961373;28;45853;-72
2022/06/23 05:11:52;;;;;;;;;2.33;2.00;;;;;21.32;100.00;100630.34;4959332;28;45925;-74
2022/06/23 05:14:51;;;;;;;;;3.00;3.00;;;;;21.37;100.00;100640.66;4965488;28;45983;-73
2022/06/23 05:17:20;;;;;;;;;5.67;3.67;;;;;21.36;100.00;100627.00;4969681;28;45877;-75
2022/06/23 05:19:48;;;;;;;;;2.33;2.33;;;;;21.39;100.00;100641.19;4971003;28;46136;-73
2022/06/23 05:22:39;;;;;;;;;5.33;3.00;;;;;21.41;100.00;100644.56;4972093;28;45878;-75
2022/06/23 05:25:36;;;;;;;;;3.00;3.00;;;;;21.44;100.00;100643.16;4956283;28;45345;-74
2022/06/23 05:28:07;;;;;;;;;4.00;2.67;;;;;21.44;100.00;100637.59;4959608;28;45317;-76
2022/06/23 05:30:39;;;;;;;;;3.33;2.67;;;;;21.49;100.00;100655.13;4964775;28;46290;-75
2022/06/23 05:33:20;;;;;;;;;2.67;2.67;;;;;21.51;100.00;100654.88;4975368;28;45821;-73
2022/06/23 05:35:58;;;;;;;;;2.67;2.67;;;;;21.53;100.00;100647.06;4975056;28;45826;-71
2022/06/23 05:38:36;;;;;;;;;2.33;2.00;;;;;21.61;100.00;100654.81;4952468;28;45463;-72
2022/06/23 05:41:12;;;;;;;;;1.00;1.00;;;;;21.65;100.00;100655.94;4955969;28;47415;-73
2022/06/23 05:43:41;;;;;;;;;2.67;2.00;;;;;21.73;100.00;100650.88;4972313;28;45826;-77
2022/06/23 05:46:14;;;;;;;;;6.00;5.33;;;;;21.80;100.00;100643.88;4962927;28;45422;-71
2022/06/23 05:48:42;;;;;;;;;5.33;4.00;;;;;22.17;100.00;100636.94;4956934;28;45426;-69
2022/06/23 05:51:10;;;;;;;;;5.33;5.33;;;;;22.68;100.00;100635.75;4969755;28;46203;-69
2022/06/23 05:53:56;;;;;;;;;3.67;2.67;;;;;23.13;100.00;100620.78;5103785;23;45697;-77
2022/06/23 05:56:43;;;;;;;;;3.00;3.00;;;;;23.73;100.00;100607.19;4959931;28;44918;-82
2022/06/23 05:59:23;;;;;;;;;8.33;7.67;;;;;25.13;100.00;100595.38;4973760;28;46123;-83
2022/06/23 06:03:19;;;;;;;;;4.00;3.00;;;;;27.16;100.00;100577.09;4976126;28;46230;-83
2022/06/23 06:05:28;;;;;;;;;5.00;4.00;;;;;28.04;100.00;100549.97;4970030;28;45545;-83
2022/06/23 06:07:55;;;;;;;;;2.67;2.67;;;;;29.16;100.00;100521.78;4981914;28;45778;-84
2022/06/23 06:10:28;;;;;;;;;4.33;3.67;;;;;30.40;100.00;100522.50;4988713;28;45515;-84
2022/06/23 06:12:55;;;;;;;;;4.67;2.67;;;;;31.66;100.00;100529.56;4963359;28;47105;-81
2022/06/23 06:15:50;;;;;;;;;5.00;3.75;;;;;32.95;100.00;100504.00;4974925;28;45536;-90
2022/06/23 06:18:33;;;;;;;;;2.50;2.50;;;;;34.07;100.00;100515.91;4993509;28;44862;-86
2022/06/23 06:21:29;;;;;;;;;4.50;3.25;;;;;34.79;100.00;100527.88;5000307;28;44841;-87
2022/06/23 06:44:16;;;;;;;;;4.00;4.00;;;;;35.41;89.13;100535.44;4965423;28;45665;-84
2022/06/23 06:47:28;;;;;;;;;4.25;3.25;;;;;34.97;92.92;100528.19;4991291;28;46187;-80
2022/06/23 07:04:40;;;;;;;;;2.25;2.25;;;;;39.86;68.30;100510.66;5001260;28;45397;-84
2022/06/23 07:17:46;;;;;;;;;5.75;4.50;;;;;45.14;44.80;100545.81;4924017;23;45640;-75
2022/06/23 07:20:24;;;;;;;;;2.50;2.50;;;;;45.99;41.61;100529.38;4935511;28;46547;-74
2022/06/23 07:23:03;;;;;;;;;3.75;3.00;;;;;46.81;38.94;100525.94;4938950;28;45853;-69
2022/06/23 07:25:44;;;;;;;;;3.00;3.00;;;;;47.48;35.51;100526.97;4935960;28;45438;-71
2022/06/23 07:28:35;;;;;;;;;3.00;3.00;;;;;48.05;35.19;100534.81;4934211;28;45470;-71
2022/06/23 07:31:15;;;;;;;;;4.25;4.00;;;;;47.71;33.81;100542.34;4933736;28;45807;-72
2022/06/23 07:33:49;;;;;;;;;4.50;4.50;;;;;47.95;32.36;100547.66;4936118;28;45576;-73
2022/06/23 07:36:38;;;;;;;;;2.67;2.67;;;;;47.34;34.08;100554.44;4940615;28;45837;-72
2022/06/23 07:39:14;;;;;;;;;2.50;2.50;;;;;47.51;32.98;100546.34;4941582;28;46546;-76
2022/06/23 07:41:47;;;;;;;;;4.25;4.25;;;;;47.83;31.87;100544.34;4934239;28;45764;-71
2022/06/23 07:44:17;;;;;;;;;2.50;2.00;;;;;47.89;32.15;100545.34;4944113;28;45986;-70
2022/06/23 07:46:43;;;;;;;;;3.25;2.25;;;;;48.02;31.68;100551.09;4952969;28;45511;-73
2022/06/23 07:49:09;;;;;;;;;2.00;2.00;;;;;48.66;30.40;100555.66;4936288;28;46996;-70
2022/06/23 07:51:36;;;;;;;;;3.67;3.67;;;;;49.05;28.46;100556.13;4953018;28;45644;-71
2022/06/23 07:54:08;;;;;;;;;3.00;3.00;;;;;49.41;27.03;100565.41;4932306;28;45874;-70
2022/06/23 07:56:39;;;;;;;;;3.33;3.33;;;;;49.36;27.13;100560.22;4935565;28;45703;-68
2022/06/23 07:59:10;;;;;;;;;4.67;4.00;;;;;48.98;27.72;100546.88;4949275;28;46026;-69
2022/06/23 08:01:49;;;;;;;;;4.00;3.00;;;;;48.66;27.63;100554.84;4947729;28;46010;-70
2022/06/23 08:04:39;;;;;;;;;5.33;5.33;;;;;48.70;26.98;100553.41;4952676;28;46150;-69
2022/06/23 08:07:10;;;;;;;;;4.33;4.33;;;;;48.97;27.38;100554.78;4936459;28;45308;-66
2022/06/23 08:09:53;;;;;;;;;4.67;4.67;;;;;49.35;27.03;100549.84;4937886;28;46610;-71
2022/06/23 08:12:57;;;;;;;;;2.00;2.00;;;;;49.84;25.88;100543.03;4938430;28;45571;-70
2022/06/23 08:18:47;;;;;;;;;1.00;1.00;;;;;50.91;24.18;100541.22;4939235;28;46020;-68
2022/06/23 08:21:15;;;;;;;;;2.33;2.33;;;;;51.00;23.18;100547.81;4929175;28;45565;-68
2022/06/23 08:23:53;;;;;;;;;5.00;4.67;;;;;50.65;24.16;100554.19;4936042;28;45769;-68
2022/06/23 08:26:22;;;;;;;;;5.00;4.00;;;;;50.75;23.48;100554.13;4944654;28;45434;-68
2022/06/23 08:28:52;;;;;;;;;5.33;3.67;;;;;50.34;23.52;100542.78;4937947;28;45356;-69
2022/06/23 08:31:19;;;;;;;;;3.00;3.00;;;;;49.88;24.63;100545.78;4947647;28;48177;-68
2022/06/23 08:33:45;;;;;;;;;4.00;2.00;;;;;50.22;25.00;100543.75;4936106;28;45656;-68
2022/06/23 08:36:15;;;;;;;;;4.00;4.00;;;;;50.63;23.48;100539.25;4934146;28;45587;-68
2022/06/23 08:38:56;;;;;;;;;3.00;3.00;;;;;51.06;23.49;100542.09;4942706;28;45934;-69
2022/06/23 08:41:39;;;;;;;;;4.33;3.33;;;;;51.68;24.07;100537.56;4935094;28;45879;-68
2022/06/23 08:44:18;;;;;;;;;5.00;4.67;;;;;52.35;21.34;100537.19;4933715;28;45681;-68
2022/06/23 08:46:51;;;;;;;;;4.33;2.33;;;;;52.78;21.32;100545.56;4941866;28;45652;-68
2022/06/23 08:49:30;;;;;;;;;3.00;3.00;;;;;53.44;20.61;100544.06;4933325;28;45475;-69
2022/06/23 08:52:01;;;;;;;;;4.33;3.33;;;;;53.93;18.87;100553.13;4932237;28;45652;-68
2022/06/23 08:54:34;;;;;;;;;3.67;3.00;;;;;54.03;18.41;100547.91;4933300;28;45782;-69
2022/06/23 08:57:05;;;;;;;;;2.00;2.00;;;;;53.55;19.54;100549.25;4964245;28;45804;-69
2022/06/23 08:59:54;;;;;;;;;3.00;2.00;;;;;53.63;19.56;100544.53;4936971;28;45677;-68
2022/06/23 09:02:48;;;;;;;;;4.00;4.00;;;;;53.65;19.78;100541.09;4928214;28;45555;-67
2022/06/23 09:05:21;;;;;;;;;3.67;2.00;;;;;53.86;19.77;100538.94;4939088;28;45382;-66
2022/06/23 09:07:50;;;;;;;;;5.00;2.67;;;;;53.72;19.72;100543.59;4936379;28;45617;-72
2022/06/23 09:10:29;;;;;;;;;2.00;2.00;;;;;54.06;19.31;100534.31;4961096;28;45722;-72
2022/06/23 09:13:30;;;;;;;;;4.67;2.00;;;;;54.58;18.82;100537.13;4929790;28;46526;-73
2022/06/23 09:16:10;;;;;;;;;4.00;4.00;;;;;55.02;18.04;100526.19;4932450;28;45752;-72
2022/06/23 09:18:54;;;;;;;;;3.00;3.00;;;;;55.24;18.47;100530.56;4932421;28;45958;-72
2022/06/23 09:21:50;;;;;;;;;3.33;2.00;;;;;54.38;17.72;100526.34;4932039;28;45830;-73
2022/06/23 09:24:40;;;;;;;;;2.00;2.00;;;;;54.30;17.99;100536.91;4931266;28;46762;-72
2022/06/23 09:27:20;;;;;;;;;2.33;2.33;;;;;54.24;17.64;100533.94;4936903;28;45563;-73
2022/06/23 09:29:51;;;;;;;;;3.00;2.00;;;;;54.03;17.44;100542.03;4934577;28;45435;-73
2022/06/23 09:32:26;;;;;;;;;2.67;2.67;;;;;54.13;18.51;100540.50;4947178;28;45881;-72
2022/06/23 09:35:28;;;;;;;;;3.00;3.00;;;;;54.24;17.76;100528.06;4929284;28;46253;-74
2022/06/23 09:38:04;;;;;;;;;2.67;2.67;;;;;54.41;17.68;100527.41;4937659;28;45382;-73
2022/06/23 09:40:50;;;;;;;;;4.00;4.00;;;;;54.34;18.22;100520.69;4933246;28;45515;-68
2022/06/23 09:43:19;;;;;;;;;4.00;4.00;;;;;54.44;17.63;100512.50;4924507;28;45671;-69
2022/06/23 09:46:23;;;;;;;;;2.67;2.67;;;;;54.81;18.27;100523.38;4930406;28;46808;-70
2022/06/23 09:48:57;;;;;;;;;3.00;3.00;;;;;55.32;16.98;100506.00;4934000;28;45882;-69
2022/06/23 09:52:10;;;;;;;;;2.67;2.67;;;;;54.07;17.53;100513.25;4928284;28;45797;-69
2022/06/23 09:54:38;;;;;;;;;4.00;3.33;;;;;53.54;18.70;100500.72;4909684;28;45593;-69
2022/06/23 09:57:35;;;;;;;;;3.00;3.00;;;;;53.20;18.65;100514.19;4910769;28;45687;-68
2022/06/23 10:00:24;;;;;;;;;3.00;3.00;;;;;53.65;19.02;100509.63;4929025;28;45397;-69
2022/06/23 10:03:07;;;;;;;;;3.33;3.33;;;;;53.76;18.33;100511.88;4997604;22;45798;-83
2022/06/23 10:05:39;;;;;;;;;3.00;3.00;;;;;53.84;18.46;100512.22;4970667;28;45949;-83
2022/06/23 10:08:22;;;;;;;;;2.67;2.33;;;;;54.15;17.89;100496.75;4975048;28;46116;-83
2022/06/23 10:11:24;;;;;;;;;2.00;2.00;;;;;54.71;17.06;100504.41;4990307;28;45367;-82
2022/06/23 10:14:28;;;;;;;;;4.33;3.00;;;;;54.78;16.39;100512.69;4969674;28;45702;-84
2022/06/23 10:17:19;;;;;;;;;4.00;4.00;;;;;54.91;16.98;100508.50;4939687;28;45790;-81
2022/06/23 10:20:00;;;;;;;;;3.00;3.00;;;;;55.01;16.88;100510.69;4972301;28;46486;-88
2022/06/23 10:22:34;;;;;;;;;3.67;3.67;;;;;55.15;16.83;100511.03;4972565;28;45545;-84
2022/06/23 10:25:31;;;;;;;;;5.33;5.33;;;;;54.13;17.30;100513.31;4977309;28;45627;-84
2022/06/23 10:28:22;;;;;;;;;18.67;16.00;;;;;53.77;18.38;100516.44;4993690;28;46016;-84
2022/06/23 10:31:06;;;;;;;;;9.33;5.00;;;;;52.71;18.29;100511.66;4972975;28;45794;-83
2022/06/23 10:33:45;;;;;;;;;13.33;10.67;;;;;51.12;19.83;100504.25;4977996;28;45648;-83
2022/06/23 10:36:29;;;;;;;;;4.00;4.00;;;;;50.76;20.00;100509.84;4952624;28;45976;-83
2022/06/23 10:39:15;;;;;;;;;16.67;14.67;;;;;51.01;19.89;100493.13;4977079;28;46699;-81
2022/06/23 10:41:50;;;;;;;;;3.33;3.00;;;;;51.45;19.55;100494.56;4971310;28;46880;-81
2022/06/23 10:44:31;;;;;;;;;3.00;3.00;;;;;51.65;19.21;100505.59;4956685;28;45918;-81
2022/06/23 10:47:29;;;;;;;;;4.00;4.00;;;;;51.71;19.52;100495.63;4982359;28;45570;-80
2022/06/23 10:50:13;;;;;;;;;5.00;5.00;;;;;51.88;19.91;100487.16;4993487;28;46098;-80
2022/06/23 10:53:05;;;;;;;;;4.00;4.00;;;;;52.26;19.09;100476.59;4987932;28;46980;-74
2022/06/23 10:56:04;;;;;;;;;8.67;8.33;;;;;51.78;20.34;100458.53;4965199;28;46007;-75
2022/06/23 10:58:36;;;;;;;;;9.33;7.67;;;;;52.54;19.59;100484.25;4970987;28;46054;-77
2022/06/23 11:01:38;;;;;;;;;5.33;5.33;;;;;53.01;18.56;100488.09;4977922;28;47070;-80
2022/06/23 11:04:30;;;;;;;;;3.00;3.00;;;;;52.86;17.87;100484.44;4972042;28;46733;-80
2022/06/23 11:07:08;;;;;;;;;5.00;4.00;;;;;52.48;18.18;100480.41;4960861;28;45685;-80
2022/06/23 11:09:48;;;;;;;;;5.67;4.67;;;;;52.10;18.84;100461.72;4967673;28;45642;-78
2022/06/23 11:12:45;;;;;;;;;7.00;6.33;;;;;51.95;20.30;100456.66;4968499;28;47068;-77
2022/06/23 11:15:32;;;;;;;;;3.00;3.00;;;;;51.58;18.99;100465.84;4957046;28;45934;-76
2022/06/23 11:18:06;;;;;;;;;6.00;5.00;;;;;50.81;19.52;100477.00;4951040;28;46551;-80
2022/06/23 11:20:35;;;;;;;;;3.00;3.00;;;;;50.23;20.17;100476.19;4955665;28;45685;-80
2022/06/23 11:23:21;;;;;;;;;4.00;4.00;;;;;49.36;20.47;100461.94;4961320;28;45602;-75
2022/06/23 11:26:08;;;;;;;;;4.00;4.00;;;;;48.62;21.61;100467.69;4954370;28;46321;-73
2022/06/23 11:28:47;;;;;;;;;4.00;4.00;;;;;47.58;21.69;100454.38;4955581;28;45725;-81
2022/06/23 11:31:24;;;;;;;;;3.00;3.00;;;;;46.58;22.25;100456.69;4948324;28;45976;-79
2022/06/23 11:34:14;;;;;;;;;3.33;3.00;;;;;45.62;25.43;100448.47;4957473;28;45513;-79
2022/06/23 11:37:31;;;;;;;;;4.00;4.00;;;;;44.64;26.76;100468.94;4956797;28;47098;-83
2022/06/23 11:40:02;;;;;;;;;5.00;4.33;;;;;43.55;28.98;100453.19;4933470;28;45649;-82
2022/06/23 11:42:57;;;;;;;;;3.00;3.00;;;;;42.71;32.50;100455.19;4955185;28;45945;-83
2022/06/23 11:45:25;;;;;;;;;3.33;2.33;;;;;41.59;34.17;100448.94;4958802;28;44849;-83
2022/06/23 11:48:12;;;;;;;;;3.67;3.67;;;;;40.57;38.73;100451.19;4958615;28;47399;-82
2022/06/23 11:50:51;;;;;;;;;3.00;3.00;;;;;39.51;41.30;100442.69;4956642;28;45506;-81
2022/06/23 11:53:28;;;;;;;;;3.75;3.75;;;;;38.64;44.49;100436.25;4959187;28;45764;-80
2022/06/23 11:56:43;;;;;;;;;3.67;3.67;;;;;37.65;48.00;100433.56;4959517;28;46266;-81
2022/06/23 11:59:23;;;;;;;;;4.67;4.67;;;;;37.01;53.54;100448.31;4896741;28;47254;-82
2022/06/23 12:01:49;;;;;;;;;4.67;4.00;;;;;36.36;54.16;100440.00;4952840;28;45066;-82
2022/06/23 12:05:06;;;;;;;;;5.00;5.00;;;;;35.87;56.99;100435.38;4963317;28;45651;-84
2022/06/23 12:07:55;;;;;;;;;4.25;4.25;;;;;35.44;60.03;100429.16;4963930;28;45557;-83
2022/06/23 12:10:26;;;;;;;;;5.00;4.50;;;;;34.78;59.13;100406.59;4960210;28;46981;-83
2022/06/23 12:12:56;;;;;;;;;2.75;2.75;;;;;34.36;59.32;100424.56;4968106;28;45787;-82
2022/06/23 12:15:28;;;;;;;;;3.00;3.00;;;;;33.77;59.92;100418.97;4958431;28;45737;-81
2022/06/23 12:18:00;;;;;;;;;5.50;4.00;;;;;33.28;63.96;100397.63;4961667;28;45445;-83
2022/06/23 12:20:45;;;;;;;;;2.50;2.50;;;;;33.08;65.89;100425.16;4958652;28;46321;-82
2022/06/23 12:23:16;;;;;;;;;4.25;4.25;;;;;32.72;67.23;100407.25;4940208;28;45436;-81
2022/06/23 12:25:59;;;;;;;;;4.67;4.67;;;;;32.29;69.33;100389.13;4955195;28;45438;-82
2022/06/23 12:28:33;;;;;;;;;5.25;4.50;;;;;32.05;70.03;100379.56;4962609;28;45686;-82
2022/06/23 12:31:17;;;;;;;;;7.25;6.25;;;;;31.93;71.90;100399.50;4962604;28;46873;-78
2022/06/23 12:34:29;;;;;;;;;3.75;3.75;;;;;31.74;76.77;100398.19;4954254;28;45504;-79
2022/06/23 12:37:07;;;;;;;;;3.00;3.00;;;;;31.45;76.90;100366.16;4924282;28;45607;-79
2022/06/23 12:39:41;;;;;;;;;3.00;2.00;;;;;31.46;77.29;100387.63;4951900;28;46954;-79
2022/06/23 12:42:12;;;;;;;;;4.00;4.00;;;;;31.34;78.77;100394.16;4950864;28;45926;-78
2022/06/23 12:44:46;;;;;;;;;7.75;3.75;;;;;31.26;77.03;100400.81;4955133;28;45527;-77
2022/06/23 12:47:44;;;;;;;;;5.33;4.33;;;;;30.97;76.00;100376.41;4956044;28;46593;-77
2022/06/23 12:50:18;;;;;;;;;5.00;4.00;;;;;30.84;72.32;100394.59;4952341;28;47257;-76
2022/06/23 12:53:11;;;;;;;;;4.00;4.00;;;;;30.66;75.33;100383.53;4960747;28;46736;-78
2022/06/23 12:56:07;;;;;;;;;5.50;3.00;;;;;30.60;78.69;100391.44;4959719;28;45884;-79
2022/06/23 12:58:47;;;;;;;;;4.67;4.67;;;;;30.48;80.34;100382.09;4958863;28;45928;-78
2022/06/23 13:01:29;;;;;;;;;4.00;4.00;;;;;30.30;81.21;100390.81;4954017;28;45497;-80
2022/06/23 13:04:03;;;;;;;;;3.75;3.75;;;;;30.14;81.82;100370.84;4942558;28;47308;-82
2022/06/23 13:06:45;;;;;;;;;4.00;4.00;;;;;30.25;83.14;100383.34;4964424;28;45563;-82
2022/06/23 13:09:14;;;;;;;;;2.67;2.67;;;;;30.34;80.38;100383.25;4935235;28;45501;-76